Time;durP1;ratioP1;P1;durP2;ratioP2;P2;SDS_P1;SDS_P2;PMS_P1;PMS_P2;Temp;Humidity;BMP_temperature;BMP_pressure;BME280_temperature;BME280_humidity;BME280_pressure;Samples;Min_cycle;Max_cycle;Signal;HPM_P1;HPM_P2
2021/01/14 00:00:32;;;;;;;7.82;2.65;;;;;;;;;;4882316;29;20032;-23
2021/01/14 00:02:58;;;;;;;11.00;2.60;;;;;;;;;;4899279;29;20092;-23
2021/01/14 00:05:23;;;;;;;8.00;2.95;;;;;;;;;;4899262;29;20025;-23
2021/01/14 00:07:49;;;;;;;7.65;2.50;;;;;;;;;;4899056;29;20051;-23
2021/01/14 00:10:15;;;;;;;6.50;2.58;;;;;;;;;;4897430;29;20040;-23
2021/01/14 00:12:41;;;;;;;11.13;3.20;;;;;;;;;;4882142;29;20043;-23
2021/01/14 00:15:07;;;;;;;7.85;3.20;;;;;;;;;;4899094;29;20028;-23
2021/01/14 00:17:32;;;;;;;14.20;3.05;;;;;;;;;;4898996;29;20047;-22
2021/01/14 00:19:58;;;;;;;10.63;2.88;;;;;;;;;;4898969;29;20472;-22
2021/01/14 00:22:23;;;;;;;6.85;2.95;;;;;;;;;;4898861;29;20037;-22
2021/01/14 00:24:49;;;;;;;12.50;2.78;;;;;;;;;;4898957;29;20040;-22
2021/01/14 00:27:14;;;;;;;11.18;3.83;;;;;;;;;;4898816;29;20024;-22
2021/01/14 00:29:39;;;;;;;12.55;3.78;;;;;;;;;;4898571;29;20488;-22
2021/01/14 00:32:05;;;;;;;6.90;3.28;;;;;;;;;;4898835;29;20052;-22
2021/01/14 00:34:30;;;;;;;10.13;3.55;;;;;;;;;;4898960;29;20116;-22
2021/01/14 00:39:40;;;;;;;6.63;3.53;;;;;;;;;;4898823;29;20040;-22
2021/01/14 00:42:05;;;;;;;9.27;3.67;;;;;;;;;;4898563;29;20031;-22
2021/01/14 00:44:30;;;;;;;7.63;3.35;;;;;;;;;;4898533;29;20425;-22
2021/01/14 00:46:57;;;;;;;5.10;3.10;;;;;;;;;;4898568;29;20033;-23
2021/01/14 00:49:23;;;;;;;8.73;3.90;;;;;;;;;;4898410;29;20484;-23
2021/01/14 00:51:48;;;;;;;5.32;2.88;;;;;;;;;;4898209;29;20063;-21
2021/01/14 00:54:14;;;;;;;11.18;3.85;;;;;;;;;;4881922;29;20064;-21
2021/01/14 00:56:39;;;;;;;7.43;2.88;;;;;;;;;;4898131;29;20436;-22
2021/01/14 00:59:05;;;;;;;6.53;3.08;;;;;;;;;;4898406;29;20038;-21
2021/01/14 01:01:31;;;;;;;9.00;3.60;;;;;;;;;;4881310;29;20028;-22
2021/01/14 01:03:57;;;;;;;11.60;3.20;;;;;;;;;;4898073;29;20072;-21
2021/01/14 01:06:23;;;;;;;6.18;2.47;;;;;;;;;;4898066;29;20072;-22
2021/01/14 01:08:49;;;;;;;7.80;3.58;;;;;;;;;;4898027;29;20441;-22
2021/01/14 01:11:15;;;;;;;36.78;10.07;;;;;;;;;;4898017;29;20040;-21
2021/01/14 01:13:40;;;;;;;9.30;4.72;;;;;;;;;;4897928;29;20032;-21
2021/01/14 01:16:06;;;;;;;9.13;4.10;;;;;;;;;;4897945;29;20104;-21
2021/01/14 01:18:33;;;;;;;21.85;9.05;;;;;;;;;;4881107;29;20024;-21
2021/01/14 01:20:59;;;;;;;7.53;3.85;;;;;;;;;;4897460;29;20056;-22
2021/01/14 01:23:24;;;;;;;42.10;10.82;;;;;;;;;;4897531;29;20064;-21
2021/01/14 01:25:49;;;;;;;18.02;5.72;;;;;;;;;;4897846;29;20043;-22
2021/01/14 01:28:15;;;;;;;10.00;4.30;;;;;;;;;;4897706;29;20115;-21
2021/01/14 01:30:40;;;;;;;25.73;9.00;;;;;;;;;;4880690;29;20100;-21
2021/01/14 01:33:06;;;;;;;5.07;2.90;;;;;;;;;;4897700;29;20465;-21
2021/01/14 01:35:31;;;;;;;6.10;3.20;;;;;;;;;;4897937;29;20115;-21
2021/01/14 01:37:56;;;;;;;8.07;4.20;;;;;;;;;;4880764;29;20191;-20
2021/01/14 01:40:22;;;;;;;11.48;4.65;;;;;;;;;;4897665;29;20036;-26
2021/01/14 01:42:55;;;;;;;8.73;3.70;;;;;;;;;;4880792;29;20044;-23
2021/01/14 01:45:20;;;;;;;9.02;3.40;;;;;;;;;;4897438;29;20036;-24
2021/01/14 01:47:45;;;;;;;8.55;3.33;;;;;;;;;;4865256;29;20555;-23
2021/01/14 01:50:11;;;;;;;6.22;3.95;;;;;;;;;;4896115;29;20032;-23
2021/01/14 01:52:36;;;;;;;58.47;16.30;;;;;;;;;;4897296;29;20061;-24
2021/01/14 01:55:03;;;;;;;41.08;15.10;;;;;;;;;;4897427;29;20032;-23
2021/01/14 01:57:28;;;;;;;38.50;12.73;;;;;;;;;;4897496;29;20387;-23
2021/01/14 01:59:53;;;;;;;11.88;5.93;;;;;;;;;;4880478;29;20032;-23
2021/01/14 02:02:20;;;;;;;12.63;5.60;;;;;;;;;;4897621;29;20087;-22
2021/01/14 02:04:45;;;;;;;11.68;6.18;;;;;;;;;;4897341;29;20029;-23
2021/01/14 02:07:14;;;;;;;15.13;5.15;;;;;;;;;;4896010;29;20044;-23
2021/01/14 02:09:42;;;;;;;12.85;5.60;;;;;;;;;;4897003;29;20045;-23
2021/01/14 02:12:08;;;;;;;15.20;6.80;;;;;;;;;;4897545;29;20398;-23
2021/01/14 02:14:34;;;;;;;15.13;6.00;;;;;;;;;;4864749;29;20041;-23
2021/01/14 02:16:59;;;;;;;14.48;5.90;;;;;;;;;;4897264;29;20068;-24
2021/01/14 02:19:34;;;;;;;14.07;6.45;;;;;;;;;;4880212;29;20128;-22
2021/01/14 02:22:04;;;;;;;16.10;6.60;;;;;;;;;;4897139;29;20051;-23
2021/01/14 02:24:52;;;;;;;18.88;7.30;;;;;;;;;;4897029;29;20077;-23
2021/01/14 02:27:18;;;;;;;16.55;5.80;;;;;;;;;;4891825;29;20127;-23
2021/01/14 02:29:44;;;;;;;15.80;6.15;;;;;;;;;;4896756;29;20139;-23
2021/01/14 02:32:16;;;;;;;9.50;4.00;;;;;;;;;;4897283;29;20033;-22
2021/01/14 02:34:41;;;;;;;17.42;5.75;;;;;;;;;;4900848;29;20028;-23
2021/01/14 02:37:07;;;;;;;8.35;4.45;;;;;;;;;;4901111;29;20487;-23
2021/01/14 02:39:34;;;;;;;9.55;4.13;;;;;;;;;;4900948;29;20108;-24
2021/01/14 02:42:00;;;;;;;7.90;3.22;;;;;;;;;;4900777;29;20476;-24
2021/01/14 02:44:25;;;;;;;5.50;2.63;;;;;;;;;;4900637;29;20040;-23
2021/01/14 02:46:50;;;;;;;4.10;2.80;;;;;;;;;;4900761;29;20031;-22
2021/01/14 02:49:18;;;;;;;4.13;2.47;;;;;;;;;;4899184;29;20115;-23
2021/01/14 02:51:47;;;;;;;4.70;2.53;;;;;;;;;;4900511;29;20044;-24
2021/01/14 02:54:14;;;;;;;4.03;3.10;;;;;;;;;;4868257;29;20377;-23
2021/01/14 02:56:40;;;;;;;8.13;3.72;;;;;;;;;;4900413;29;20037;-23
2021/01/14 02:59:05;;;;;;;14.32;3.83;;;;;;;;;;4900504;29;20092;-23
2021/01/14 03:01:31;;;;;;;6.32;3.05;;;;;;;;;;4900824;29;20062;-23
2021/01/14 03:03:56;;;;;;;7.60;2.97;;;;;;;;;;4883492;29;20025;-24
2021/01/14 03:06:22;;;;;;;8.90;3.72;;;;;;;;;;4900393;29;20479;-23
2021/01/14 03:08:47;;;;;;;11.55;3.22;;;;;;;;;;4900223;29;20480;-23
2021/01/14 03:11:13;;;;;;;3.97;2.60;;;;;;;;;;4900453;29;20047;-22
2021/01/14 03:13:38;;;;;;;7.00;2.85;;;;;;;;;;4883283;29;20532;-23
2021/01/14 03:16:06;;;;;;;5.40;2.42;;;;;;;;;;4883292;29;20092;-20
2021/01/14 03:18:31;;;;;;;6.80;2.70;;;;;;;;;;4867629;29;20472;-23
2021/01/14 03:20:57;;;;;;;8.10;2.78;;;;;;;;;;4900067;29;20039;-23
2021/01/14 03:23:22;;;;;;;8.75;3.28;;;;;;;;;;4883132;29;20043;-28
2021/01/14 03:25:48;;;;;;;6.15;2.72;;;;;;;;;;4899407;29;20619;-23
2021/01/14 03:28:13;;;;;;;6.40;3.17;;;;;;;;;;4882626;29;20048;-23
2021/01/14 03:30:38;;;;;;;7.43;3.58;;;;;;;;;;4899666;29;20112;-22
2021/01/14 03:33:04;;;;;;;5.38;3.22;;;;;;;;;;4898645;29;20041;-22
2021/01/14 03:35:29;;;;;;;5.97;2.90;;;;;;;;;;4899751;29;20029;-23
2021/01/14 03:37:54;;;;;;;7.70;2.80;;;;;;;;;;4899860;29;20062;-22
2021/01/14 03:40:20;;;;;;;3.20;2.30;;;;;;;;;;4899609;29;20060;-23
2021/01/14 03:42:45;;;;;;;4.55;1.70;;;;;;;;;;4899664;29;20072;-23
2021/01/14 03:45:11;;;;;;;6.65;2.90;;;;;;;;;;4898881;29;20039;-23
2021/01/14 03:47:36;;;;;;;4.60;2.85;;;;;;;;;;4899480;29;20107;-23
2021/01/14 03:50:02;;;;;;;4.13;2.20;;;;;;;;;;4899541;29;20432;-22
2021/01/14 03:52:28;;;;;;;7.40;3.03;;;;;;;;;;4899424;29;20025;-22
2021/01/14 03:54:53;;;;;;;5.13;3.03;;;;;;;;;;4899531;29;20036;-22
2021/01/14 03:57:19;;;;;;;5.65;2.67;;;;;;;;;;4882761;29;20231;-23
2021/01/14 03:59:44;;;;;;;5.20;2.42;;;;;;;;;;4899342;29;20127;-23
2021/01/14 04:02:09;;;;;;;7.05;2.97;;;;;;;;;;4899614;29;20024;-23
2021/01/14 04:04:42;;;;;;;7.32;2.63;;;;;;;;;;4899148;29;20115;-22
2021/01/14 04:07:11;;;;;;;7.35;2.95;;;;;;;;;;4899563;29;20028;-22
2021/01/14 04:09:37;;;;;;;5.65;3.08;;;;;;;;;;4898967;29;20135;-22
2021/01/14 04:12:03;;;;;;;7.60;2.92;;;;;;;;;;4899484;29;20104;-22
2021/01/14 04:14:29;;;;;;;7.82;2.90;;;;;;;;;;4882206;29;20036;-22
2021/01/14 04:16:54;;;;;;;12.65;4.03;;;;;;;;;;4897780;29;20032;-23
2021/01/14 04:19:20;;;;;;;7.00;3.67;;;;;;;;;;4899049;29;20052;-23
2021/01/14 04:21:46;;;;;;;7.63;4.30;;;;;;;;;;4882033;29;20048;-22
2021/01/14 04:24:11;;;;;;;9.07;4.35;;;;;;;;;;4898970;29;20463;-23
2021/01/14 04:26:37;;;;;;;8.43;4.38;;;;;;;;;;4898883;29;20024;-24
2021/01/14 04:29:03;;;;;;;9.07;4.57;;;;;;;;;;4898649;29;20056;-23
2021/01/14 04:31:28;;;;;;;9.05;4.03;;;;;;;;;;4898797;29;20029;-23
2021/01/14 04:33:54;;;;;;;5.05;3.33;;;;;;;;;;4898789;29;20404;-23
2021/01/14 04:36:19;;;;;;;8.25;3.70;;;;;;;;;;4898742;29;20468;-22
2021/01/14 04:38:45;;;;;;;14.60;4.25;;;;;;;;;;4898604;29;20579;-22
2021/01/14 04:41:10;;;;;;;6.47;3.88;;;;;;;;;;4898777;29;20035;-22
2021/01/14 04:43:36;;;;;;;5.97;3.65;;;;;;;;;;4898524;29;20028;-21
2021/01/14 04:46:06;;;;;;;7.72;3.40;;;;;;;;;;4898657;29;20060;-22
2021/01/14 04:48:36;;;;;;;6.78;3.63;;;;;;;;;;4898612;29;20064;-22
2021/01/14 04:51:08;;;;;;;9.52;3.75;;;;;;;;;;4881654;29;20488;-22
2021/01/14 04:53:35;;;;;;;4.63;2.70;;;;;;;;;;4898387;29;20036;-23
2021/01/14 04:56:02;;;;;;;5.68;3.42;;;;;;;;;;4881564;29;20029;-22
2021/01/14 04:58:28;;;;;;;9.13;3.97;;;;;;;;;;4898193;29;20084;-23
2021/01/14 05:00:56;;;;;;;9.82;4.93;;;;;;;;;;4898330;29;20431;-22
2021/01/14 05:03:22;;;;;;;11.20;4.40;;;;;;;;;;4898299;29;20047;-22
2021/01/14 05:05:48;;;;;;;5.72;3.25;;;;;;;;;;4898115;29;20077;-22
2021/01/14 05:08:15;;;;;;;8.55;4.18;;;;;;;;;;4898062;29;20040;-22
2021/01/14 05:10:41;;;;;;;6.72;3.47;;;;;;;;;;4898029;29;20039;-23
2021/01/14 05:13:08;;;;;;;4.97;3.40;;;;;;;;;;4898074;29;20096;-23
2021/01/14 05:15:34;;;;;;;6.45;4.07;;;;;;;;;;4898137;29;20075;-23
2021/01/14 05:18:00;;;;;;;8.95;4.35;;;;;;;;;;4898515;29;20064;-23
2021/01/14 05:20:26;;;;;;;10.13;5.28;;;;;;;;;;4898070;29;20347;-22
2021/01/14 05:22:56;;;;;;;7.65;4.15;;;;;;;;;;4898185;29;20480;-22
2021/01/14 05:25:21;;;;;;;9.38;3.10;;;;;;;;;;4897884;29;20044;-23
2021/01/14 05:27:46;;;;;;;6.78;3.88;;;;;;;;;;4897585;29;20420;-23
2021/01/14 05:30:12;;;;;;;5.93;2.95;;;;;;;;;;4880827;29;20049;-23
2021/01/14 05:32:41;;;;;;;7.10;2.78;;;;;;;;;;4897653;29;20064;-23
2021/01/14 05:35:08;;;;;;;5.13;2.63;;;;;;;;;;4897687;29;20028;-23
2021/01/14 05:37:41;;;;;;;4.15;2.70;;;;;;;;;;4897615;29;20400;-23
2021/01/14 05:40:07;;;;;;;10.63;4.15;;;;;;;;;;4896167;29;20041;-23
2021/01/14 05:42:33;;;;;;;8.88;4.10;;;;;;;;;;4897544;29;20453;-23
2021/01/14 05:44:58;;;;;;;5.88;3.08;;;;;;;;;;4880883;29;20389;-23
2021/01/14 05:47:25;;;;;;;13.18;5.00;;;;;;;;;;4897498;29;20028;-23
2021/01/14 05:49:56;;;;;;;8.02;4.07;;;;;;;;;;4880686;29;20176;-22
2021/01/14 05:52:23;;;;;;;13.95;6.60;;;;;;;;;;4896190;29;20035;-22
2021/01/14 05:55:04;;;;;;;6.95;3.92;;;;;;;;;;4897327;29;20033;-23
2021/01/14 05:57:33;;;;;;;7.53;3.42;;;;;;;;;;4896060;29;20037;-24
2021/01/14 06:00:00;;;;;;;8.10;3.50;;;;;;;;;;4897287;29;20024;-22
2021/01/14 06:02:29;;;;;;;6.03;3.67;;;;;;;;;;4897418;29;20031;-22
2021/01/14 06:04:54;;;;;;;18.25;6.50;;;;;;;;;;4897289;29;20028;-22
2021/01/14 06:07:19;;;;;;;5.70;3.35;;;;;;;;;;4895703;29;20029;-22
2021/01/14 06:09:45;;;;;;;5.35;3.22;;;;;;;;;;4896988;29;20036;-23
2021/01/14 06:12:11;;;;;;;4.85;2.53;;;;;;;;;;4897535;29;20528;-23
2021/01/14 06:14:37;;;;;;;6.93;4.15;;;;;;;;;;4897359;29;20044;-23
2021/01/14 06:17:06;;;;;;;8.20;3.45;;;;;;;;;;4897335;29;20043;-24
2021/01/14 06:19:32;;;;;;;9.77;4.07;;;;;;;;;;4880207;29;20476;-30
2021/01/14 06:21:58;;;;;;;9.77;4.40;;;;;;;;;;4897431;29;20088;-24
2021/01/14 06:24:37;;;;;;;6.78;3.00;;;;;;;;;;4895860;29;20508;-23
2021/01/14 06:27:05;;;;;;;7.05;3.55;;;;;;;;;;4897090;29;20496;-23
2021/01/14 06:29:31;;;;;;;7.47;3.17;;;;;;;;;;4896725;29;20056;-23
2021/01/14 06:32:12;;;;;;;5.13;2.78;;;;;;;;;;4897055;29;20060;-22
2021/01/14 06:34:47;;;;;;;9.35;3.53;;;;;;;;;;4896997;29;20032;-22
2021/01/14 06:37:14;;;;;;;5.93;4.25;;;;;;;;;;4880171;29;20433;-23
2021/01/14 06:39:41;;;;;;;10.00;4.05;;;;;;;;;;4896818;29;20032;-23
2021/01/14 06:42:17;;;;;;;18.58;7.47;;;;;;;;;;4897012;29;20053;-23
2021/01/14 06:44:51;;;;;;;7.43;3.78;;;;;;;;;;4880168;29;20048;-22
2021/01/14 06:47:27;;;;;;;9.45;3.78;;;;;;;;;;4896945;29;20542;-23
2021/01/14 06:50:00;;;;;;;7.05;3.92;;;;;;;;;;4896923;29;20491;-23
2021/01/14 06:52:27;;;;;;;6.93;3.35;;;;;;;;;;4879927;29;20128;-23
2021/01/14 06:54:53;;;;;;;6.20;3.13;;;;;;;;;;4896971;29;20039;-22
2021/01/14 06:57:20;;;;;;;7.47;3.08;;;;;;;;;;4896916;29;20103;-22
2021/01/14 06:59:46;;;;;;;6.88;3.25;;;;;;;;;;4896711;29;20057;-22
2021/01/14 07:02:29;;;;;;;28.85;9.70;;;;;;;;;;4896915;29;20025;-22
2021/01/14 07:04:54;;;;;;;;;;;;;;;;;;4897285;29;20360;-22
2021/01/14 07:07:25;;;;;;;10.38;4.03;;;;;;;;;;4896863;29;19918;-22
2021/01/14 07:10:01;;;;;;;11.60;4.13;;;;;;;;;;4879698;29;20045;-23
2021/01/14 07:12:27;;;;;;;9.30;3.22;;;;;;;;;;4896652;29;20037;-23
2021/01/14 07:15:01;;;;;;;3.63;2.22;;;;;;;;;;4879991;29;20111;-24
2021/01/14 07:17:31;;;;;;;7.15;3.42;;;;;;;;;;4896447;29;20033;-22
2021/01/14 07:19:57;;;;;;;9.23;2.85;;;;;;;;;;4897188;29;20166;-22
2021/01/14 07:22:24;;;;;;;2.58;1.65;;;;;;;;;;4900154;29;20029;-23
2021/01/14 07:24:50;;;;;;;4.20;2.35;;;;;;;;;;4883111;29;20388;-21
2021/01/14 07:27:16;;;;;;;7.25;3.25;;;;;;;;;;4883213;29;20497;-22
2021/01/14 07:29:44;;;;;;;6.18;3.10;;;;;;;;;;4899643;29;20075;-21
2021/01/14 07:32:10;;;;;;;5.63;2.85;;;;;;;;;;4899932;29;20041;-23
2021/01/14 07:34:42;;;;;;;4.72;2.38;;;;;;;;;;4899731;29;20036;-22
2021/01/14 07:37:08;;;;;;;6.13;3.53;;;;;;;;;;4882950;29;20041;-22
2021/01/14 07:39:52;;;;;;;15.52;5.78;;;;;;;;;;4882866;29;20056;-21
2021/01/14 07:42:21;;;;;;;7.05;3.45;;;;;;;;;;4899538;29;20384;-21
2021/01/14 07:44:56;;;;;;;6.32;2.95;;;;;;;;;;4899642;29;20068;-23
2021/01/14 07:47:27;;;;;;;20.83;7.55;;;;;;;;;;4899639;29;20056;-22
2021/01/14 07:49:52;;;;;;;7.15;3.17;;;;;;;;;;4899526;29;20037;-21
2021/01/14 07:52:32;;;;;;;5.10;2.55;;;;;;;;;;4899319;29;20025;-22
2021/01/14 07:55:02;;;;;;;5.13;3.05;;;;;;;;;;4899831;29;20063;-21
2021/01/14 07:57:28;;;;;;;7.40;3.25;;;;;;;;;;4899616;29;20060;-24
2021/01/14 07:59:57;;;;;;;6.68;2.80;;;;;;;;;;4899411;29;20092;-21
2021/01/14 08:02:23;;;;;;;5.43;2.95;;;;;;;;;;4899307;29;20043;-22
2021/01/14 08:04:49;;;;;;;6.10;3.05;;;;;;;;;;4899263;29;20104;-22
2021/01/14 08:07:24;;;;;;;3.75;2.00;;;;;;;;;;4899290;29;20041;-22
2021/01/14 08:09:51;;;;;;;3.72;2.15;;;;;;;;;;4898971;29;20048;-23
2021/01/14 08:12:18;;;;;;;6.68;2.88;;;;;;;;;;4899431;29;20036;-23
2021/01/14 08:14:43;;;;;;;3.03;2.25;;;;;;;;;;4899046;29;20111;-23
2021/01/14 08:17:38;;;;;;;5.88;3.35;;;;;;;;;;4899139;29;20052;-22
2021/01/14 08:20:04;;;;;;;11.07;5.15;;;;;;;;;;4881036;29;20044;-22
2021/01/14 08:22:41;;;;;;;10.10;4.43;;;;;;;;;;4882039;29;20476;-23
2021/01/14 08:25:13;;;;;;;9.93;5.13;;;;;;;;;;4898959;29;20492;-22
2021/01/14 08:27:38;;;;;;;6.93;3.38;;;;;;;;;;4898899;29;20036;-23
2021/01/14 08:30:07;;;;;;;4.95;2.63;;;;;;;;;;4898437;29;20048;-22
2021/01/14 08:32:39;;;;;;;21.02;7.78;;;;;;;;;;4898782;29;20445;-23
2021/01/14 08:35:06;;;;;;;22.77;10.05;;;;;;;;;;4882111;29;20039;-23
2021/01/14 08:37:36;;;;;;;5.28;3.13;;;;;;;;;;4898641;29;20039;-22
2021/01/14 08:40:04;;;;;;;9.18;4.07;;;;;;;;;;4898637;29;20033;-22
2021/01/14 08:42:31;;;;;;;13.10;5.90;;;;;;;;;;4898501;29;20032;-23
2021/01/14 08:45:10;;;;;;;6.68;3.80;;;;;;;;;;4881735;29;20043;-22
2021/01/14 08:47:51;;;;;;;6.65;3.22;;;;;;;;;;4898470;29;20068;-23
2021/01/14 08:50:16;;;;;;;4.47;2.50;;;;;;;;;;4898497;29;20080;-23
2021/01/14 08:52:45;;;;;;;4.60;2.75;;;;;;;;;;4898586;29;20060;-23
2021/01/14 08:55:13;;;;;;;5.97;2.95;;;;;;;;;;4881680;29;20068;-22
2021/01/14 08:57:52;;;;;;;4.93;2.33;;;;;;;;;;4898314;29;20028;-24
2021/01/14 09:00:17;;;;;;;4.13;2.10;;;;;;;;;;4881803;29;20076;-22
2021/01/14 09:02:44;;;;;;;4.15;2.60;;;;;;;;;;4898472;29;20167;-23
2021/01/14 09:05:10;;;;;;;4.18;2.03;;;;;;;;;;4897667;29;20032;-21
2021/01/14 09:07:35;;;;;;;4.22;1.75;;;;;;;;;;4555551;29;9999853;-23
2021/01/14 09:10:00;;;;;;;3.47;2.50;;;;;;;;;;4895265;29;20686;-24
2021/01/14 09:12:26;;;;;;;4.72;2.60;;;;;;;;;;4895431;29;20039;-23
2021/01/14 09:14:52;;;;;;;5.40;2.60;;;;;;;;;;4895013;29;20547;-24
2021/01/14 09:17:18;;;;;;;3.80;2.70;;;;;;;;;;4894670;29;20028;-25
2021/01/14 09:19:52;;;;;;;4.30;2.58;;;;;;;;;;4893615;29;20096;-23
2021/01/14 09:22:23;;;;;;;5.88;2.83;;;;;;;;;;4894947;29;20035;-23
2021/01/14 09:24:48;;;;;;;3.88;2.05;;;;;;;;;;4877714;29;20132;-23
2021/01/14 09:27:13;;;;;;;8.13;2.58;;;;;;;;;;4894546;29;20107;-21
2021/01/14 09:29:39;;;;;;;6.82;3.10;;;;;;;;;;4893755;29;20064;-21
2021/01/14 09:32:14;;;;;;;3.28;2.33;;;;;;;;;;4894599;29;20069;-21
2021/01/14 09:34:39;;;;;;;5.97;2.72;;;;;;;;;;4894644;29;20068;-22
2021/01/14 09:37:25;;;;;;;3.10;1.90;;;;;;;;;;4877778;29;20537;-25
2021/01/14 09:39:50;;;;;;;5.20;2.53;;;;;;;;;;4894247;29;20072;-22
2021/01/14 09:42:20;;;;;;;4.30;2.60;;;;;;;;;;4893526;29;20071;-21
2021/01/14 09:44:45;;;;;;;4.97;2.88;;;;;;;;;;4894467;29;20167;-21
2021/01/14 09:47:12;;;;;;;7.22;2.45;;;;;;;;;;4894207;29;20029;-22
2021/01/14 09:49:38;;;;;;;3.20;2.35;;;;;;;;;;4893958;29;20044;-22
2021/01/14 09:52:03;;;;;;;5.65;3.00;;;;;;;;;;4894234;29;20373;-22
2021/01/14 09:54:29;;;;;;;3.65;2.17;;;;;;;;;;4893684;29;20029;-22
2021/01/14 09:56:58;;;;;;;4.88;2.75;;;;;;;;;;4894388;29;20039;-22
2021/01/14 09:59:34;;;;;;;6.75;3.90;;;;;;;;;;4894306;29;20708;-21
2021/01/14 10:02:06;;;;;;;10.88;3.15;;;;;;;;;;4892883;29;20040;-21
2021/01/14 10:04:33;;;;;;;7.60;3.33;;;;;;;;;;4876999;29;20083;-21
2021/01/14 10:07:03;;;;;;;13.07;5.80;;;;;;;;;;4893377;29;20488;-20
2021/01/14 10:09:28;;;;;;;5.20;3.00;;;;;;;;;;4893976;29;20045;-20
2021/01/14 10:11:55;;;;;;;8.30;4.53;;;;;;;;;;4893691;29;20044;-21
2021/01/14 10:14:21;;;;;;;6.55;2.83;;;;;;;;;;4877102;29;20083;-21
2021/01/14 10:16:47;;;;;;;4.63;2.20;;;;;;;;;;4893944;29;20033;-24
2021/01/14 10:19:19;;;;;;;5.35;3.05;;;;;;;;;;4876897;29;20039;-21
2021/01/14 10:21:46;;;;;;;8.90;4.43;;;;;;;;;;4893961;29;20052;-22
2021/01/14 10:24:18;;;;;;;5.20;2.35;;;;;;;;;;4894125;29;20025;-21
2021/01/14 10:26:43;;;;;;;3.22;2.33;;;;;;;;;;4900420;29;20040;-21
2021/01/14 10:29:09;;;;;;;4.78;3.25;;;;;;;;;;4912222;29;20066;-21
2021/01/14 10:31:35;;;;;;;6.85;2.90;;;;;;;;;;4895651;29;20040;-21
2021/01/14 10:34:01;;;;;;;5.05;2.20;;;;;;;;;;4912588;29;20032;-21
2021/01/14 10:36:45;;;;;;;3.55;2.65;;;;;;;;;;4912611;29;20035;-21
2021/01/14 10:39:10;;;;;;;5.47;2.83;;;;;;;;;;4912625;29;20028;-21
2021/01/14 10:41:36;;;;;;;4.95;3.33;;;;;;;;;;4912170;29;20444;-20
2021/01/14 10:44:05;;;;;;;6.15;3.83;;;;;;;;;;4895567;29;20402;-22
2021/01/14 10:46:30;;;;;;;6.10;2.95;;;;;;;;;;4912559;29;20043;-21
2021/01/14 10:49:06;;;;;;;5.40;3.40;;;;;;;;;;4912412;29;20051;-22
2021/01/14 10:51:32;;;;;;;7.57;4.50;;;;;;;;;;4895320;29;20036;-21
2021/01/14 10:53:58;;;;;;;4.40;2.75;;;;;;;;;;4913057;29;20115;-21
2021/01/14 10:56:24;;;;;;;4.38;3.15;;;;;;;;;;4910712;29;20056;-21
2021/01/14 10:58:57;;;;;;;3.67;2.72;;;;;;;;;;4897099;29;20033;-21
2021/01/14 11:01:22;;;;;;;;;;;;;;;;;;4897522;29;20044;-22
2021/01/14 11:03:48;;;;;;;4.82;2.80;;;;;;;;;;4897214;29;19967;-21
2021/01/14 11:06:27;;;;;;;4.88;2.90;;;;;;;;;;4874628;29;20097;-20
2021/01/14 11:08:57;;;;;;;8.45;4.15;;;;;;;;;;4890876;29;20495;-22
2021/01/14 11:11:23;;;;;;;4.72;2.80;;;;;;;;;;4896472;29;20029;-21
2021/01/14 11:13:49;;;;;;;7.20;2.72;;;;;;;;;;4896958;29;20074;-21
2021/01/14 11:16:17;;;;;;;4.80;3.58;;;;;;;;;;4896555;29;20043;-21
2021/01/14 11:19:04;;;;;;;5.20;3.72;;;;;;;;;;4896172;29;20039;-20
2021/01/14 11:21:30;;;;;;;5.32;4.05;;;;;;;;;;4879777;29;20554;-20
2021/01/14 11:23:56;;;;;;;8.20;3.80;;;;;;;;;;4896035;29;20037;-21
2021/01/14 11:26:21;;;;;;;6.50;4.28;;;;;;;;;;4896699;29;20013;-20
2021/01/14 11:28:48;;;;;;;6.38;4.22;;;;;;;;;;4896224;29;20096;-21
2021/01/14 11:31:17;;;;;;;7.45;3.78;;;;;;;;;;4879056;29;20131;-19
2021/01/14 11:33:43;;;;;;;4.78;3.38;;;;;;;;;;4879682;29;20036;-21
2021/01/14 11:36:09;;;;;;;8.02;3.92;;;;;;;;;;4896126;29;20131;-20
2021/01/14 11:38:34;;;;;;;4.22;3.20;;;;;;;;;;4896049;29;20040;-20
2021/01/14 11:41:00;;;;;;;6.35;3.38;;;;;;;;;;4895895;29;20089;-22
2021/01/14 11:43:26;;;;;;;5.40;3.15;;;;;;;;;;4895615;29;20035;-22
2021/01/14 11:45:51;;;;;;;3.38;2.60;;;;;;;;;;4895855;29;20543;-23
2021/01/14 11:48:17;;;;;;;5.65;3.50;;;;;;;;;;4893044;29;20134;-23
2021/01/14 11:50:42;;;;;;;4.68;2.92;;;;;;;;;;4876876;29;20480;-23
2021/01/14 11:53:08;;;;;;;5.68;2.45;;;;;;;;;;4876397;29;20025;-23
2021/01/14 11:55:33;;;;;;;3.72;2.20;;;;;;;;;;4877112;29;20047;-19
2021/01/14 11:57:59;;;;;;;5.43;2.78;;;;;;;;;;4877254;29;20116;-21
2021/01/14 12:00:24;;;;;;;3.53;2.50;;;;;;;;;;4860075;29;20033;-20
2021/01/14 12:02:50;;;;;;;3.05;2.13;;;;;;;;;;4875434;29;20191;-21
2021/01/14 12:05:15;;;;;;;2.63;1.60;;;;;;;;;;4876123;29;20033;-21
2021/01/14 12:07:40;;;;;;;7.13;1.50;;;;;;;;;;4893105;29;20033;-20
2021/01/14 12:10:06;;;;;;;1.42;1.27;;;;;;;;;;4895974;29;20104;-21
2021/01/14 12:12:32;;;;;;;2.45;1.08;;;;;;;;;;4895643;29;20083;-22
2021/01/14 12:14:58;;;;;;;1.35;0.90;;;;;;;;;;4895863;29;20044;-21
2021/01/14 12:17:23;;;;;;;1.73;0.90;;;;;;;;;;4895813;29;20113;-21
2021/01/14 12:19:49;;;;;;;1.02;0.93;;;;;;;;;;4895571;29;20476;-20
2021/01/14 12:22:14;;;;;;;2.92;1.25;;;;;;;;;;4895315;29;20476;-20
2021/01/14 12:24:40;;;;;;;1.10;0.98;;;;;;;;;;4895267;29;20040;-21
2021/01/14 12:27:05;;;;;;;2.58;1.33;;;;;;;;;;4895664;29;20040;-21
2021/01/14 12:29:31;;;;;;;3.85;1.27;;;;;;;;;;4895470;29;20059;-21
2021/01/14 12:31:57;;;;;;;1.05;1.00;;;;;;;;;;4896759;29;20036;-21
2021/01/14 12:34:22;;;;;;;1.90;1.27;;;;;;;;;;4895988;29;20044;-21
2021/01/14 12:36:48;;;;;;;1.67;1.17;;;;;;;;;;4878501;29;20136;-21
2021/01/14 12:39:13;;;;;;;3.95;1.90;;;;;;;;;;4895407;29;20041;-20
2021/01/14 12:41:39;;;;;;;2.15;1.23;;;;;;;;;;4877891;29;20185;-20
2021/01/14 12:44:05;;;;;;;1.52;1.13;;;;;;;;;;4895436;29;20036;-20
2021/01/14 12:46:38;;;;;;;1.35;0.93;;;;;;;;;;4895087;29;20027;-21
2021/01/14 12:49:04;;;;;;;1.15;0.75;;;;;;;;;;4894869;29;20045;-20
2021/01/14 12:51:29;;;;;;;0.77;0.68;;;;;;;;;;4895185;29;20036;-20
2021/01/14 12:53:55;;;;;;;2.10;1.48;;;;;;;;;;4877311;29;20033;-20
2021/01/14 12:56:21;;;;;;;1.85;1.05;;;;;;;;;;4895177;29;20040;-20
2021/01/14 12:58:46;;;;;;;1.40;1.27;;;;;;;;;;4878284;29;20040;-20
2021/01/14 13:01:12;;;;;;;2.00;1.23;;;;;;;;;;4895072;29;20535;-20
2021/01/14 13:03:37;;;;;;;0.85;0.65;;;;;;;;;;4895220;29;20037;-20
2021/01/14 13:06:03;;;;;;;1.38;0.93;;;;;;;;;;4894443;29;20036;-21
2021/01/14 13:08:29;;;;;;;3.15;1.00;;;;;;;;;;4877788;29;20077;-20
2021/01/14 13:10:54;;;;;;;0.73;0.32;;;;;;;;;;4894369;29;20055;-20
2021/01/14 13:13:19;;;;;;;2.90;0.70;;;;;;;;;;4877928;29;20116;-20
2021/01/14 13:15:45;;;;;;;4.68;1.63;;;;;;;;;;4894430;29;20040;-20
2021/01/14 13:18:10;;;;;;;1.30;0.70;;;;;;;;;;4893174;29;20037;-21
2021/01/14 13:20:36;;;;;;;1.88;1.10;;;;;;;;;;4894444;29;20719;-20
2021/01/14 13:23:01;;;;;;;2.55;1.10;;;;;;;;;;4894482;29;20048;-22
2021/01/14 13:25:27;;;;;;;2.00;0.80;;;;;;;;;;4894507;29;20032;-21
2021/01/14 13:27:52;;;;;;;1.40;0.98;;;;;;;;;;4877622;29;20042;-21
2021/01/14 13:30:18;;;;;;;2.35;1.20;;;;;;;;;;4893589;29;20052;-21
2021/01/14 13:32:43;;;;;;;2.80;1.27;;;;;;;;;;4894305;29;20029;-21
2021/01/14 13:35:09;;;;;;;2.70;1.65;;;;;;;;;;4894238;29;20039;-22
2021/01/14 13:37:35;;;;;;;4.53;1.23;;;;;;;;;;4894008;29;20038;-21
2021/01/14 13:40:00;;;;;;;1.50;0.70;;;;;;;;;;4894012;29;20048;-21
2021/01/14 13:42:25;;;;;;;1.48;0.95;;;;;;;;;;4893448;29;20265;-21
2021/01/14 13:44:51;;;;;;;1.13;1.02;;;;;;;;;;4877231;29;20440;-22
2021/01/14 13:47:16;;;;;;;0.70;0.60;;;;;;;;;;4894113;29;20107;-22
2021/01/14 13:49:42;;;;;;;1.88;0.85;;;;;;;;;;4893191;29;20048;-21
2021/01/14 13:52:08;;;;;;;0.63;0.63;;;;;;;;;;4894018;29;20128;-21
2021/01/14 13:54:33;;;;;;;0.60;0.30;;;;;;;;;;4893762;29;20127;-21
2021/01/14 13:56:59;;;;;;;0.70;0.63;;;;;;;;;;4877108;29;20055;-21
2021/01/14 13:59:26;;;;;;;1.13;1.02;;;;;;;;;;4893743;29;20048;-21
2021/01/14 14:01:51;;;;;;;0.70;0.68;;;;;;;;;;4893845;29;20033;-22
2021/01/14 14:04:17;;;;;;;0.35;0.32;;;;;;;;;;4877016;29;20029;-22
2021/01/14 14:06:43;;;;;;;1.17;0.70;;;;;;;;;;4893207;29;20039;-23
2021/01/14 14:09:09;;;;;;;1.58;0.98;;;;;;;;;;4876917;29;20034;-23
2021/01/14 14:11:36;;;;;;;1.20;0.88;;;;;;;;;;4893963;29;20028;-22
2021/01/14 14:14:01;;;;;;;0.90;0.38;;;;;;;;;;4893729;29;20033;-22
2021/01/14 14:16:27;;;;;;;4.28;0.98;;;;;;;;;;4893670;29;20032;-20
2021/01/14 14:18:53;;;;;;;0.75;0.38;;;;;;;;;;4891700;29;20032;-21
2021/01/14 14:21:18;;;;;;;2.20;0.77;;;;;;;;;;4893597;29;20100;-22
2021/01/14 14:23:45;;;;;;;1.15;0.60;;;;;;;;;;4893403;29;20559;-21
2021/01/14 14:26:11;;;;;;;0.68;0.28;;;;;;;;;;4893528;29;20040;-21
2021/01/14 14:28:37;;;;;;;0.73;0.73;;;;;;;;;;4893798;29;20064;-21
2021/01/14 14:31:02;;;;;;;0.30;0.30;;;;;;;;;;4880042;29;20047;-21
2021/01/14 14:33:28;;;;;;;0.32;0.32;;;;;;;;;;4897531;29;20043;-22
2021/01/14 14:35:53;;;;;;;1.00;0.98;;;;;;;;;;4897539;29;20435;-22
2021/01/14 14:38:18;;;;;;;1.73;0.80;;;;;;;;;;4897397;29;20036;-21
2021/01/14 14:40:45;;;;;;;1.00;0.60;;;;;;;;;;4897274;29;20056;-22
2021/01/14 14:43:10;;;;;;;0.40;0.30;;;;;;;;;;4880156;29;20051;-21